createdAt,value
2019-02-24T00:03:37.121Z,103780.58
2019-02-24T00:08:39.972Z,103774.75
2019-02-24T00:13:42.772Z,103773.38
2019-02-24T00:18:45.570Z,103772.48
2019-02-24T00:23:48.355Z,103769.06
2019-02-24T00:28:51.146Z,103767.38
2019-02-24T00:33:54.005Z,103773.38
2019-02-24T00:38:56.805Z,103782.61
2019-02-24T00:43:59.623Z,103780.47
2019-02-24T00:49:02.392Z,103770.25
2019-02-24T00:54:05.251Z,103749.08
2019-02-24T00:59:08.044Z,103740.88
2019-02-24T01:04:10.823Z,103735.29
2019-02-24T01:09:13.607Z,103733.43
2019-02-24T01:14:16.376Z,103727.94
2019-02-24T01:19:19.146Z,103724.73
2019-02-24T01:24:21.916Z,103725.63
2019-02-24T01:29:24.708Z,103722.22
2019-02-24T01:34:27.495Z,103721.91
2019-02-24T01:39:30.275Z,103715.75
2019-02-24T01:44:33.046Z,103719.23
2019-02-24T01:49:35.885Z,103705.20
2019-02-24T01:54:38.652Z,103689.97
2019-02-24T01:59:41.439Z,103680.91
2019-02-24T02:04:44.223Z,103692.36
2019-02-24T02:09:47.009Z,103691.77
2019-02-24T02:14:49.817Z,103685.05
2019-02-24T02:19:52.604Z,103688.24
2019-02-24T02:24:55.427Z,103684.92
2019-02-24T02:29:58.237Z,103667.95
2019-02-24T02:35:01.027Z,103675.57
2019-02-24T02:40:04.877Z,103677.55
2019-02-24T02:45:08.229Z,103668.62
2019-02-24T02:50:11.017Z,103655.84
2019-02-24T02:55:13.914Z,103670.53
2019-02-24T03:00:49.893Z,103681.48
2019-02-24T03:06:00.428Z,103681.48
2019-02-24T03:11:03.203Z,103675.97
2019-02-24T03:16:05.992Z,103660.80
2019-02-24T03:21:08.779Z,103663.55
2019-02-24T03:26:11.555Z,103652.46
2019-02-24T03:31:14.349Z,103656.48
2019-02-24T03:36:17.201Z,103651.56
2019-02-24T03:41:19.983Z,103641.36
2019-02-24T03:46:22.764Z,103637.52
2019-02-24T03:51:25.537Z,103645.86
2019-02-24T03:56:28.316Z,103641.18
2019-02-24T04:01:31.147Z,103643.88
2019-02-24T04:06:34.017Z,103645.68
2019-02-24T04:11:36.803Z,103649.40
2019-02-24T04:16:39.598Z,103643.41
2019-02-24T04:21:42.380Z,103631.88
2019-02-24T04:26:45.162Z,103624.56
2019-02-24T04:31:47.932Z,103624.95
2019-02-24T04:36:50.777Z,103628.62
2019-02-24T04:41:53.541Z,103621.17
2019-02-24T04:46:56.327Z,103615.23
2019-02-24T04:51:59.116Z,103597.24
2019-02-24T04:57:01.964Z,103595.03
2019-02-24T05:02:04.821Z,103598.20
2019-02-24T05:07:07.584Z,103606.84
2019-02-24T05:12:10.450Z,103603.24
2019-02-24T05:17:13.221Z,103599.46
2019-02-24T05:22:16.008Z,103601.38
2019-02-24T05:27:18.816Z,103604.91
2019-02-24T05:32:21.613Z,103602.16
2019-02-24T05:37:24.395Z,103598.91
2019-02-24T05:42:27.186Z,103600.30
2019-02-24T05:47:29.970Z,103596.70
2019-02-24T05:52:32.752Z,103601.61
2019-02-24T05:57:35.607Z,103600.30
2019-02-24T06:02:38.456Z,103593.81
2019-02-24T06:07:41.248Z,103591.53
2019-02-24T06:12:44.039Z,103603.95
2019-02-24T06:17:46.833Z,103616.80
2019-02-24T06:22:49.625Z,103608.72
2019-02-24T06:27:52.424Z,103604.68
2019-02-24T06:32:55.189Z,103600.52
2019-02-24T06:37:58.001Z,103597.07
2019-02-24T06:43:00.781Z,103596.41
2019-02-24T06:48:03.633Z,103596.05
2019-02-24T06:53:06.420Z,103606.67
2019-02-24T06:58:09.206Z,103604.39
2019-02-24T07:03:11.989Z,103614.89
2019-02-24T07:08:14.769Z,103597.75
2019-02-24T07:13:17.547Z,103589.50
2019-02-24T07:18:20.333Z,103605.49
2019-02-24T07:23:23.119Z,103614.96
2019-02-24T07:28:25.908Z,103605.78
2019-02-24T07:33:28.691Z,103603.31
2019-02-24T07:38:31.464Z,103599.08
2019-02-24T07:43:34.265Z,103594.52
2019-02-24T07:48:37.052Z,103597.76
2019-02-24T07:53:39.857Z,103598.95
2019-02-24T07:58:42.646Z,103594.39
2019-02-24T08:03:45.449Z,103598.69
2019-02-24T08:08:48.372Z,103609.45
2019-02-24T08:13:51.156Z,103613.45
2019-02-24T08:18:53.923Z,103621.88
2019-02-24T08:23:56.727Z,103621.04
2019-02-24T08:28:59.497Z,103614.27
2019-02-24T08:34:02.290Z,103605.72
2019-02-24T08:39:05.829Z,103602.83
2019-02-24T08:44:08.660Z,103604.28
2019-02-24T08:49:11.476Z,103606.49
2019-02-24T08:54:14.264Z,103592.69
2019-02-24T08:59:17.052Z,103592.69
2019-02-24T09:04:19.904Z,103600.13
2019-02-24T09:09:22.716Z,103613.72
2019-02-24T09:14:25.596Z,103607.52
2019-02-24T09:19:28.440Z,103600.48
2019-02-24T09:24:31.206Z,103597.62
2019-02-24T09:29:34.002Z,103587.16
2019-02-24T09:34:36.864Z,103590.78
2019-02-24T09:39:39.650Z,103603.98
2019-02-24T09:44:42.444Z,103630.53
2019-02-24T09:49:45.221Z,103616.35
2019-02-24T09:54:48.012Z,103624.83
2019-02-24T09:59:50.796Z,103632.78
2019-02-24T10:04:53.586Z,103631.84
2019-02-24T10:09:56.442Z,103637.93
2019-02-24T10:14:59.227Z,103647.59
2019-02-24T10:20:02.016Z,103655.66
2019-02-24T10:25:06.439Z,103644.41
2019-02-24T10:30:10.814Z,103627.62
2019-02-24T10:35:13.656Z,103623.77
2019-02-24T10:40:16.910Z,103634.75
2019-02-24T10:45:19.805Z,103625.45
2019-02-24T10:50:22.590Z,103634.10
2019-02-24T10:55:25.420Z,103613.41
2019-02-24T11:00:28.192Z,103627.49
2019-02-24T11:05:31.044Z,103627.93
2019-02-24T11:10:33.829Z,103613.30
2019-02-24T11:15:36.627Z,103607.44
2019-02-24T11:20:39.395Z,103596.73
2019-02-24T11:25:42.256Z,103596.66
2019-02-24T11:30:45.096Z,103609.16
2019-02-24T11:35:47.892Z,103605.84
2019-02-24T11:40:50.744Z,103597.23
2019-02-24T11:45:53.528Z,103592.93
2019-02-24T11:50:56.312Z,103592.08
2019-02-24T11:55:59.152Z,103591.52
2019-02-24T12:01:02.017Z,103581.63
2019-02-24T12:06:04.803Z,103583.31
2019-02-24T12:11:07.667Z,103592.77
2019-02-24T12:16:10.508Z,103595.50
2019-02-24T12:21:13.300Z,103601.00
2019-02-24T12:26:16.085Z,103591.50
2019-02-24T12:31:18.864Z,103586.58
2019-02-24T12:36:21.736Z,103556.17
2019-02-24T12:41:24.517Z,103563.27
2019-02-24T12:46:27.368Z,103560.81
2019-02-24T12:51:30.147Z,103543.14
2019-02-24T12:56:33.042Z,103556.14
2019-02-24T13:01:35.812Z,103556.75
2019-02-24T13:06:38.613Z,103556.20
2019-02-24T13:11:41.475Z,103538.73
2019-02-24T13:16:44.265Z,103521.77
2019-02-24T13:21:47.132Z,103525.97
2019-02-24T13:26:49.907Z,103524.56
2019-02-24T13:31:52.736Z,103517.00
2019-02-24T13:36:55.507Z,103516.20
2019-02-24T13:41:58.289Z,103506.57
2019-02-24T13:47:01.132Z,103500.41
2019-02-24T13:52:04.935Z,103502.13
2019-02-24T13:57:07.700Z,103495.62
2019-02-24T14:02:10.468Z,103489.89
2019-02-24T14:07:13.268Z,103487.56
2019-02-24T14:12:16.103Z,103475.62
2019-02-24T14:17:18.888Z,103468.00
2019-02-24T14:22:21.772Z,103473.73
2019-02-24T14:27:24.560Z,103482.12
2019-02-24T14:32:33.060Z,103499.29
2019-02-24T14:37:31.761Z,103506.74
2019-02-24T14:42:34.540Z,103495.61
2019-02-24T14:47:40.497Z,103480.25
2019-02-24T14:52:43.295Z,103481.41
2019-02-24T14:57:46.162Z,103489.95
2019-02-24T15:02:48.959Z,103467.67
2019-02-24T15:07:51.729Z,103463.19
2019-02-24T15:12:54.583Z,103445.30
2019-02-24T15:17:57.388Z,103459.80
2019-02-24T15:23:20.891Z,103466.42
2019-02-24T15:34:10.645Z,103442.58
2019-02-24T15:39:14.904Z,103432.27
2019-02-24T15:44:17.692Z,103430.52
2019-02-24T15:54:48.860Z,103441.05
2019-02-24T15:59:51.949Z,103445.14
2019-02-24T16:04:54.770Z,103452.77
2019-02-24T16:09:57.571Z,103453.51
2019-02-24T16:15:00.332Z,103451.30
2019-02-24T16:20:03.188Z,103441.56
2019-02-24T16:25:06.922Z,103445.34
2019-02-24T16:30:11.381Z,103442.03
2019-02-24T16:35:15.053Z,103448.70
2019-02-24T16:40:37.107Z,103443.73
2019-02-24T16:45:39.955Z,103458.33
2019-02-24T16:50:42.725Z,103456.38
2019-02-24T16:55:45.532Z,103465.63
2019-02-24T17:00:48.389Z,103471.66
2019-02-24T17:05:51.187Z,103471.84
2019-02-24T17:10:54.023Z,103473.16
2019-02-24T17:15:56.812Z,103463.63
2019-02-24T17:20:59.667Z,103466.73
2019-02-24T17:26:02.486Z,103461.34
2019-02-24T17:31:07.008Z,103451.17
2019-02-24T17:36:09.984Z,103444.15
2019-02-24T17:41:12.769Z,103450.91
2019-02-24T17:46:15.628Z,103461.58
2019-02-24T17:51:21.243Z,103446.43
2019-02-24T17:56:23.139Z,103453.87
2019-02-24T18:01:25.964Z,103457.09
2019-02-24T18:06:28.744Z,103444.48
2019-02-24T18:11:31.527Z,103438.33
2019-02-24T18:16:34.308Z,103430.80
2019-02-24T18:21:37.080Z,103431.90
2019-02-24T18:26:39.866Z,103442.52
2019-02-24T18:37:08.651Z,103429.54
2019-02-24T18:42:11.450Z,103452.94
2019-02-24T18:47:15.529Z,103446.43
2019-02-24T18:52:18.322Z,103448.91
2019-02-24T18:57:21.083Z,103464.64
2019-02-24T19:07:58.418Z,103471.64
2019-02-24T19:13:01.182Z,103474.41
2019-02-24T19:18:04.078Z,103472.12
2019-02-24T19:23:07.080Z,103471.48
2019-02-24T19:28:09.932Z,103459.68
2019-02-24T19:33:12.718Z,103464.59
2019-02-24T19:38:15.574Z,103459.83
2019-02-24T19:43:18.352Z,103447.80
2019-02-24T19:48:21.152Z,103447.11
2019-02-24T19:53:24.014Z,103438.94
2019-02-24T19:58:26.791Z,103437.91
2019-02-24T20:03:29.559Z,103445.59
2019-02-24T20:08:32.357Z,103437.63
2019-02-24T20:13:35.140Z,103438.27
2019-02-24T20:18:37.993Z,103434.86
2019-02-24T20:23:40.827Z,103438.45
2019-02-24T20:28:43.600Z,103438.59
2019-02-24T20:33:46.412Z,103414.33
2019-02-24T20:38:49.192Z,103425.26
2019-02-24T20:49:18.727Z,103442.00
2019-02-24T20:54:21.527Z,103450.00
2019-02-24T20:59:24.328Z,103447.38
2019-02-24T21:05:06.707Z,103457.47
2019-02-24T21:09:48.672Z,103464.38
2019-02-24T21:14:51.466Z,103477.46
2019-02-24T21:19:54.249Z,103474.21
2019-02-24T21:24:57.084Z,103476.97
2019-02-24T21:29:59.873Z,103478.98
2019-02-24T21:35:02.672Z,103474.05
2019-02-24T21:40:06.980Z,103473.57
2019-02-24T21:45:11.540Z,103475.73
2019-02-24T21:50:15.236Z,103470.20
2019-02-24T21:55:18.091Z,103463.89
2019-02-24T22:00:22.383Z,103465.69
2019-02-24T22:05:25.164Z,103452.34
2019-02-24T22:10:27.932Z,103455.83
2019-02-24T22:15:30.717Z,103450.86
2019-02-24T22:20:33.564Z,103477.61
2019-02-24T22:25:36.361Z,103480.41
2019-02-24T22:30:39.219Z,103481.34
2019-02-24T22:35:42.021Z,103467.97
2019-02-24T22:40:54.024Z,103467.97
2019-02-24T22:45:49.243Z,103468.26
2019-02-24T22:50:52.044Z,103475.09
2019-02-24T22:55:54.828Z,103465.34
2019-02-24T23:01:00.788Z,103462.09
2019-02-24T23:11:21.655Z,103434.19
2019-02-24T23:16:24.420Z,103439.80
2019-02-24T23:21:27.188Z,103435.58
2019-02-24T23:26:29.944Z,103418.16
2019-02-24T23:31:32.804Z,103414.91
2019-02-24T23:36:35.572Z,103407.36
2019-02-24T23:41:38.355Z,103394.44
2019-02-24T23:46:41.140Z,103398.84
2019-02-24T23:51:43.997Z,103398.28
2019-02-24T23:56:46.760Z,103371.97
